Terminal Aerodrome Forecast
Issued by NWS

Home | Current Version | Previous Version | Text Only | Print | Product List | Glossary On
Versions: 1 2 3 4 5 6 7 8 9 10 11 12 13
000
FTUS45 KPIH 301120
TAFSUN
TAF
KSUN 301120Z 3012/0112 31011KT P6SM SCT130 SCT200
     FM301700 14008KT P6SM SCT100
     FM301900 20010KT P6SM VCTS SCT100CB BKN200
     FM010200 31010KT P6SM FEW200
      AMD LTD TO CLD VIS AND WIND TIL 301300=

USA.gov is the U.S. government's official web portal to all federal, state and local government web resources and services.